Time;durP1;ratioP1;P1;durP2;ratioP2;P2;SDS_P1;SDS_P2;PMS_P1;PMS_P2;Temp;Humidity;BMP_temperature;BMP_pressure;BME280_temperature;BME280_humidity;BME280_pressure;Samples;Min_cycle;Max_cycle;Signal;HPM_P1;HPM_P2
2023/06/23 00:01:52;;;;;;;10.55;6.30;;;;;;;;;;4969332;28;20042;-59
2023/06/23 00:04:19;;;;;;;11.73;6.13;;;;;;;;;;4971614;28;20046;-59
2023/06/23 00:06:45;;;;;;;9.68;7.30;;;;;;;;;;4969994;28;20073;-59
2023/06/23 00:09:14;;;;;;;9.73;6.32;;;;;;;;;;4970435;28;20072;-59
2023/06/23 00:11:43;;;;;;;9.50;5.90;;;;;;;;;;4971223;28;20041;-59
2023/06/23 00:14:10;;;;;;;10.00;6.45;;;;;;;;;;4969029;28;20667;-59
2023/06/23 00:16:37;;;;;;;9.05;5.90;;;;;;;;;;4970434;28;20161;-59
2023/06/23 00:19:03;;;;;;;10.10;6.22;;;;;;;;;;4970068;28;20049;-59
2023/06/23 00:21:29;;;;;;;8.43;5.30;;;;;;;;;;4969977;28;20044;-59
2023/06/23 00:23:56;;;;;;;9.27;6.10;;;;;;;;;;4969135;28;20088;-59
2023/06/23 00:26:23;;;;;;;9.77;6.30;;;;;;;;;;4970574;28;21856;-59
2023/06/23 00:28:49;;;;;;;9.60;5.70;;;;;;;;;;4970583;28;20044;-59
2023/06/23 00:31:15;;;;;;;8.48;5.70;;;;;;;;;;4969296;28;20154;-59
2023/06/23 00:33:42;;;;;;;8.95;5.68;;;;;;;;;;4969722;28;20042;-59
2023/06/23 00:36:08;;;;;;;9.77;5.32;;;;;;;;;;4970006;28;20029;-59
2023/06/23 00:38:34;;;;;;;8.75;5.45;;;;;;;;;;4969838;28;20169;-59
2023/06/23 00:41:00;;;;;;;8.35;5.43;;;;;;;;;;4968324;28;20053;-59
2023/06/23 00:43:30;;;;;;;9.50;5.93;;;;;;;;;;4969774;28;20030;-59
2023/06/23 00:45:56;;;;;;;10.10;6.20;;;;;;;;;;4970261;28;20026;-59
2023/06/23 00:48:22;;;;;;;8.65;5.80;;;;;;;;;;4971117;28;20065;-59
2023/06/23 00:50:48;;;;;;;9.20;5.90;;;;;;;;;;4969093;28;20041;-59
2023/06/23 00:53:16;;;;;;;9.30;5.57;;;;;;;;;;4969414;28;20034;-59
2023/06/23 00:55:44;;;;;;;8.75;5.82;;;;;;;;;;4970091;28;20035;-59
2023/06/23 00:58:10;;;;;;;10.65;6.43;;;;;;;;;;4958788;28;20030;-59
2023/06/23 01:00:36;;;;;;;11.70;6.28;;;;;;;;;;4969228;28;20038;-59
2023/06/23 01:03:03;;;;;;;11.05;6.60;;;;;;;;;;4971531;28;20026;-59
2023/06/23 01:05:31;;;;;;;8.70;5.88;;;;;;;;;;4966677;28;20569;-59
2023/06/23 01:08:09;;;;;;;10.10;6.78;;;;;;;;;;4969434;28;20022;-59
2023/06/23 01:10:52;;;;;;;13.48;6.97;;;;;;;;;;4968489;28;20080;-59
2023/06/23 01:13:24;;;;;;;11.73;6.60;;;;;;;;;;4969051;28;20030;-59
2023/06/23 01:16:02;;;;;;;10.73;6.63;;;;;;;;;;4969434;28;20073;-59
2023/06/23 01:18:28;;;;;;;14.45;6.57;;;;;;;;;;4970446;28;20920;-59
2023/06/23 01:20:56;;;;;;;14.38;6.22;;;;;;;;;;4968764;28;20093;-59
2023/06/23 01:23:35;;;;;;;9.70;6.60;;;;;;;;;;4969219;28;20093;-59
2023/06/23 01:26:01;;;;;;;10.55;6.25;;;;;;;;;;4968938;28;20045;-59
2023/06/23 01:28:33;;;;;;;8.88;6.15;;;;;;;;;;4968347;28;20054;-59
2023/06/23 01:31:01;;;;;;;8.10;5.25;;;;;;;;;;4968293;28;20034;-59
2023/06/23 01:33:32;;;;;;;9.18;5.55;;;;;;;;;;4970668;28;20026;-59
2023/06/23 01:36:06;;;;;;;12.10;6.40;;;;;;;;;;4968694;28;20643;-59
2023/06/23 01:38:37;;;;;;;8.93;7.03;;;;;;;;;;4969964;28;20058;-59
2023/06/23 01:41:06;;;;;;;9.88;7.05;;;;;;;;;;4969756;28;21819;-59
2023/06/23 01:43:33;;;;;;;11.80;8.05;;;;;;;;;;4969156;28;20038;-59
2023/06/23 01:46:03;;;;;;;12.20;7.97;;;;;;;;;;4970089;28;20050;-59
2023/06/23 01:48:30;;;;;;;11.63;8.50;;;;;;;;;;4969993;28;20116;-59
2023/06/23 01:50:57;;;;;;;10.75;7.75;;;;;;;;;;4970201;28;20431;-59
2023/06/23 01:53:25;;;;;;;12.23;8.95;;;;;;;;;;4969852;28;20674;-59
2023/06/23 01:55:52;;;;;;;12.85;8.07;;;;;;;;;;4969509;28;20026;-59
2023/06/23 01:58:18;;;;;;;11.77;7.32;;;;;;;;;;4969423;28;20077;-59
2023/06/23 02:00:45;;;;;;;11.27;7.45;;;;;;;;;;4969930;28;21703;-59
2023/06/23 02:03:12;;;;;;;12.50;7.65;;;;;;;;;;4968748;28;20038;-59
2023/06/23 02:05:39;;;;;;;12.18;6.60;;;;;;;;;;4973005;28;20041;-59
2023/06/23 02:08:06;;;;;;;10.73;6.85;;;;;;;;;;4973513;28;21048;-59
2023/06/23 02:10:33;;;;;;;11.38;6.75;;;;;;;;;;4973308;28;20157;-58
2023/06/23 02:12:59;;;;;;;9.45;6.70;;;;;;;;;;4972651;28;20038;-59
2023/06/23 02:15:26;;;;;;;10.80;6.50;;;;;;;;;;4973245;28;20041;-59
2023/06/23 02:17:53;;;;;;;10.85;6.97;;;;;;;;;;4971760;28;20703;-59
2023/06/23 02:20:23;;;;;;;10.73;6.25;;;;;;;;;;4974293;28;20034;-59
2023/06/23 02:22:50;;;;;;;9.73;5.20;;;;;;;;;;4972850;28;21872;-59
2023/06/23 02:25:17;;;;;;;8.95;5.57;;;;;;;;;;4972581;28;20144;-59
2023/06/23 02:27:44;;;;;;;8.02;5.50;;;;;;;;;;4972744;28;21855;-59
2023/06/23 02:30:10;;;;;;;10.75;6.22;;;;;;;;;;4972980;28;20048;-59
2023/06/23 02:32:37;;;;;;;8.00;4.82;;;;;;;;;;4972035;28;20049;-59
2023/06/23 02:35:03;;;;;;;9.38;5.45;;;;;;;;;;4972338;28;20038;-59
2023/06/23 02:37:31;;;;;;;9.13;4.70;;;;;;;;;;4972285;28;20026;-59
2023/06/23 02:40:16;;;;;;;8.57;4.65;;;;;;;;;;4972360;28;20034;-59
2023/06/23 02:42:43;;;;;;;8.15;5.03;;;;;;;;;;4972787;28;20045;-59
2023/06/23 02:45:14;;;;;;;11.52;5.05;;;;;;;;;;4973273;28;20660;-59
2023/06/23 02:47:41;;;;;;;10.27;5.40;;;;;;;;;;4971600;28;20030;-59
2023/06/23 02:50:11;;;;;;;10.35;5.80;;;;;;;;;;4971991;28;20516;-59
2023/06/23 02:52:41;;;;;;;9.75;5.53;;;;;;;;;;4972312;28;21416;-59
2023/06/23 02:55:08;;;;;;;7.80;5.20;;;;;;;;;;4971503;28;20928;-59
2023/06/23 02:57:35;;;;;;;8.65;5.55;;;;;;;;;;4971275;28;20042;-59
2023/06/23 03:00:06;;;;;;;8.85;5.72;;;;;;;;;;4972494;28;20476;-59
2023/06/23 03:02:32;;;;;;;11.73;6.00;;;;;;;;;;4972910;28;20034;-58
2023/06/23 03:04:59;;;;;;;9.68;6.15;;;;;;;;;;4972270;28;20038;-59
2023/06/23 03:07:25;;;;;;;8.90;5.25;;;;;;;;;;4972133;28;20045;-59
2023/06/23 03:09:51;;;;;;;11.00;5.82;;;;;;;;;;4971428;28;20142;-59
2023/06/23 03:12:18;;;;;;;10.75;5.03;;;;;;;;;;4970424;28;20026;-59
2023/06/23 03:14:45;;;;;;;10.70;5.45;;;;;;;;;;4971727;28;20035;-59
2023/06/23 03:17:16;;;;;;;10.13;5.30;;;;;;;;;;4970663;28;20049;-59
2023/06/23 03:20:01;;;;;;;8.18;5.53;;;;;;;;;;4972110;28;20045;-59
2023/06/23 03:22:32;;;;;;;12.57;5.03;;;;;;;;;;4972169;28;20885;-59
2023/06/23 03:25:04;;;;;;;9.07;5.20;;;;;;;;;;4970102;28;20046;-59
2023/06/23 03:27:31;;;;;;;10.63;5.30;;;;;;;;;;4970502;28;20529;-59
2023/06/23 03:30:05;;;;;;;8.95;4.88;;;;;;;;;;4972343;28;20080;-59
2023/06/23 03:32:37;;;;;;;8.13;4.40;;;;;;;;;;4971642;28;20031;-59
2023/06/23 03:35:05;;;;;;;7.78;4.47;;;;;;;;;;4972302;28;20034;-59
2023/06/23 03:37:32;;;;;;;8.27;4.50;;;;;;;;;;4970995;28;20109;-59
2023/06/23 03:40:01;;;;;;;8.18;4.60;;;;;;;;;;4971004;28;20041;-59
2023/06/23 03:42:28;;;;;;;11.93;5.65;;;;;;;;;;4970920;28;20054;-58
2023/06/23 03:44:56;;;;;;;9.23;4.80;;;;;;;;;;4971834;28;20118;-58
2023/06/23 03:47:24;;;;;;;9.32;4.55;;;;;;;;;;4970811;28;20026;-59
2023/06/23 03:49:51;;;;;;;8.27;5.25;;;;;;;;;;4972203;28;20057;-59
2023/06/23 03:52:18;;;;;;;9.88;5.05;;;;;;;;;;4971993;28;20038;-59
2023/06/23 03:54:48;;;;;;;9.82;5.88;;;;;;;;;;4969982;28;20081;-59
2023/06/23 03:57:16;;;;;;;8.90;4.57;;;;;;;;;;4970342;28;20041;-58
2023/06/23 03:59:43;;;;;;;7.43;4.75;;;;;;;;;;4971463;28;20036;-59
2023/06/23 04:02:10;;;;;;;8.20;4.95;;;;;;;;;;4971517;28;20129;-59
2023/06/23 04:04:38;;;;;;;9.93;5.95;;;;;;;;;;4970218;28;20030;-59
2023/06/23 04:07:05;;;;;;;9.07;5.20;;;;;;;;;;4970812;28;20033;-59
2023/06/23 04:09:33;;;;;;;10.77;5.05;;;;;;;;;;4958839;28;20030;-58
2023/06/23 04:11:59;;;;;;;8.18;5.25;;;;;;;;;;4969013;28;20038;-58
2023/06/23 04:14:27;;;;;;;7.68;5.53;;;;;;;;;;4970127;28;20030;-59
2023/06/23 04:16:54;;;;;;;11.57;5.93;;;;;;;;;;4971625;28;20030;-58
2023/06/23 04:19:25;;;;;;;9.43;6.28;;;;;;;;;;4970854;28;20041;-59
2023/06/23 04:21:52;;;;;;;9.00;5.75;;;;;;;;;;4970923;28;20365;-59
2023/06/23 04:24:19;;;;;;;10.32;6.00;;;;;;;;;;4968867;28;20065;-58
2023/06/23 04:26:46;;;;;;;9.48;6.15;;;;;;;;;;4970026;28;20035;-58
2023/06/23 04:29:13;;;;;;;8.63;6.20;;;;;;;;;;4967818;28;20037;-58
2023/06/23 04:31:39;;;;;;;11.98;6.45;;;;;;;;;;4969948;28;20037;-58
2023/06/23 04:34:05;;;;;;;11.18;6.60;;;;;;;;;;4969135;28;20046;-59
2023/06/23 04:36:44;;;;;;;10.48;6.05;;;;;;;;;;4969563;28;20040;-58
2023/06/23 04:39:19;;;;;;;7.72;5.75;;;;;;;;;;4969175;28;20088;-59
2023/06/23 04:41:47;;;;;;;10.55;6.20;;;;;;;;;;4970238;28;20034;-59
2023/06/23 04:44:13;;;;;;;9.27;5.70;;;;;;;;;;4970345;28;20034;-59
2023/06/23 04:46:41;;;;;;;10.20;6.35;;;;;;;;;;4970611;28;20084;-58
2023/06/23 04:49:11;;;;;;;11.27;6.60;;;;;;;;;;4968589;28;20030;-58
2023/06/23 04:51:43;;;;;;;11.80;5.97;;;;;;;;;;4969764;28;20366;-58
2023/06/23 04:54:11;;;;;;;8.90;5.72;;;;;;;;;;4968946;28;20956;-59
2023/06/23 04:56:38;;;;;;;15.60;6.57;;;;;;;;;;4969750;28;20038;-59
2023/06/23 04:59:05;;;;;;;9.77;6.18;;;;;;;;;;4968185;28;20042;-59
2023/06/23 05:01:32;;;;;;;10.02;6.35;;;;;;;;;;4970604;28;20045;-59
2023/06/23 05:04:00;;;;;;;8.75;5.78;;;;;;;;;;4970399;28;20039;-59
2023/06/23 05:06:26;;;;;;;12.45;6.72;;;;;;;;;;4968368;28;21313;-58
2023/06/23 05:08:54;;;;;;;10.85;6.65;;;;;;;;;;4969538;28;20766;-59
2023/06/23 05:11:21;;;;;;;10.40;6.15;;;;;;;;;;4968488;28;20029;-58
2023/06/23 05:13:48;;;;;;;11.02;6.22;;;;;;;;;;4970434;28;20038;-59
2023/06/23 05:16:14;;;;;;;10.80;6.75;;;;;;;;;;4968879;28;20031;-59
2023/06/23 05:18:42;;;;;;;9.80;5.97;;;;;;;;;;4968595;28;20042;-59
2023/06/23 05:21:09;;;;;;;10.57;6.40;;;;;;;;;;4968853;28;20042;-59
2023/06/23 05:23:35;;;;;;;11.40;7.03;;;;;;;;;;4970056;28;20304;-59
2023/06/23 05:26:02;;;;;;;9.60;6.00;;;;;;;;;;4968592;28;20054;-59
2023/06/23 05:28:31;;;;;;;10.88;6.43;;;;;;;;;;4968742;28;20034;-59
2023/06/23 05:30:58;;;;;;;10.07;6.20;;;;;;;;;;4969372;28;20100;-59
2023/06/23 05:33:28;;;;;;;9.85;5.57;;;;;;;;;;4969586;28;20030;-59
2023/06/23 05:35:54;;;;;;;8.40;5.72;;;;;;;;;;4970080;28;20042;-59
2023/06/23 05:38:21;;;;;;;9.00;5.93;;;;;;;;;;4969886;28;20046;-59
2023/06/23 05:40:47;;;;;;;11.70;5.80;;;;;;;;;;4973018;28;20037;-58
2023/06/23 05:43:13;;;;;;;10.18;6.20;;;;;;;;;;4973411;28;20122;-58
2023/06/23 05:45:39;;;;;;;8.10;5.50;;;;;;;;;;4973996;28;20088;-58
2023/06/23 05:48:09;;;;;;;10.80;5.68;;;;;;;;;;4972995;28;20029;-58
2023/06/23 05:50:36;;;;;;;10.70;6.18;;;;;;;;;;4974245;28;20030;-58
2023/06/23 05:53:12;;;;;;;11.38;6.03;;;;;;;;;;4972444;28;20038;-59
2023/06/23 05:55:40;;;;;;;8.73;6.28;;;;;;;;;;4973998;28;20046;-59
2023/06/23 05:58:08;;;;;;;9.23;5.70;;;;;;;;;;4973238;28;20081;-59
2023/06/23 06:00:54;;;;;;;8.32;5.72;;;;;;;;;;4973753;28;20072;-59
2023/06/23 06:03:23;;;;;;;9.60;5.55;;;;;;;;;;4973734;28;20071;-59
2023/06/23 06:05:53;;;;;;;8.60;5.47;;;;;;;;;;4973596;28;20053;-59
2023/06/23 06:08:20;;;;;;;7.45;5.45;;;;;;;;;;4972584;28;20034;-59
2023/06/23 06:10:46;;;;;;;9.27;5.95;;;;;;;;;;4973547;28;20697;-59
2023/06/23 06:13:13;;;;;;;10.27;5.28;;;;;;;;;;4986033;28;20044;-59
2023/06/23 06:15:39;;;;;;;8.55;5.47;;;;;;;;;;4972703;28;20092;-59
2023/06/23 06:18:07;;;;;;;7.90;5.45;;;;;;;;;;4971871;28;20484;-59
2023/06/23 06:20:33;;;;;;;7.70;4.72;;;;;;;;;;4973987;28;20031;-59
2023/06/23 06:23:00;;;;;;;7.88;4.68;;;;;;;;;;4972972;28;20481;-59
2023/06/23 06:25:27;;;;;;;7.65;5.30;;;;;;;;;;4972610;28;21816;-59
2023/06/23 06:27:54;;;;;;;8.40;4.55;;;;;;;;;;4970420;28;20450;-59
2023/06/23 06:30:20;;;;;;;7.68;4.78;;;;;;;;;;4971781;28;20029;-59
2023/06/23 06:32:47;;;;;;;10.73;4.80;;;;;;;;;;4966589;28;20038;-58
2023/06/23 06:35:15;;;;;;;6.45;4.20;;;;;;;;;;4952427;28;20076;-59
2023/06/23 06:37:47;;;;;;;6.97;4.30;;;;;;;;;;4971867;28;20034;-59
2023/06/23 06:40:15;;;;;;;6.03;4.20;;;;;;;;;;4972371;28;20624;-59
2023/06/23 06:42:41;;;;;;;5.68;3.25;;;;;;;;;;4972501;28;20035;-59
2023/06/23 06:45:07;;;;;;;7.63;4.15;;;;;;;;;;4972642;28;20099;-59
2023/06/23 06:47:40;;;;;;;7.32;3.83;;;;;;;;;;4972296;28;20034;-59
2023/06/23 06:50:06;;;;;;;7.63;3.97;;;;;;;;;;4973487;28;20030;-59
2023/06/23 06:52:32;;;;;;;6.22;3.63;;;;;;;;;;4972613;28;20050;-59
2023/06/23 06:54:58;;;;;;;7.95;3.50;;;;;;;;;;4971616;28;20038;-59
2023/06/23 06:57:25;;;;;;;6.22;3.47;;;;;;;;;;4973203;28;20026;-59
2023/06/23 06:59:51;;;;;;;6.88;3.40;;;;;;;;;;4971799;28;20044;-59
2023/06/23 07:02:18;;;;;;;8.18;3.65;;;;;;;;;;4969359;28;20490;-59
2023/06/23 07:04:44;;;;;;;7.45;3.42;;;;;;;;;;4972698;28;20056;-59
2023/06/23 07:07:13;;;;;;;6.60;3.30;;;;;;;;;;4972947;28;20034;-59
2023/06/23 07:09:39;;;;;;;5.05;3.08;;;;;;;;;;4971425;28;20151;-59
2023/06/23 07:12:06;;;;;;;6.13;2.92;;;;;;;;;;4972305;28;20092;-59
2023/06/23 07:14:32;;;;;;;6.90;2.80;;;;;;;;;;4972810;28;20035;-59
2023/06/23 07:16:58;;;;;;;5.22;3.08;;;;;;;;;;4972175;28;20663;-59
2023/06/23 07:19:24;;;;;;;5.55;2.67;;;;;;;;;;4972563;28;20474;-60
2023/06/23 07:21:50;;;;;;;5.30;2.67;;;;;;;;;;4973816;28;20561;-59
2023/06/23 07:24:16;;;;;;;7.10;3.00;;;;;;;;;;4972763;28;20046;-59
2023/06/23 07:26:42;;;;;;;4.40;2.65;;;;;;;;;;4972567;28;20034;-59
2023/06/23 07:29:09;;;;;;;5.28;2.88;;;;;;;;;;4973089;28;20030;-59
2023/06/23 07:31:37;;;;;;;6.43;2.40;;;;;;;;;;4971921;28;21332;-59
2023/06/23 07:34:03;;;;;;;5.10;2.40;;;;;;;;;;4969842;28;20048;-59
2023/06/23 07:36:29;;;;;;;5.93;2.60;;;;;;;;;;4973247;28;21312;-59
2023/06/23 07:38:55;;;;;;;5.45;2.95;;;;;;;;;;4972579;28;20038;-59
2023/06/23 07:41:21;;;;;;;5.97;3.20;;;;;;;;;;4973385;28;20153;-59
2023/06/23 07:43:47;;;;;;;7.07;3.42;;;;;;;;;;4971826;28;20037;-59
2023/06/23 07:46:13;;;;;;;4.65;2.85;;;;;;;;;;4971490;28;20441;-59
2023/06/23 07:48:39;;;;;;;6.07;2.88;;;;;;;;;;4972914;28;20030;-59
2023/06/23 07:51:05;;;;;;;6.55;3.50;;;;;;;;;;4972284;28;20037;-59
2023/06/23 07:53:31;;;;;;;9.50;3.42;;;;;;;;;;4977696;28;20034;-59
2023/06/23 07:55:57;;;;;;;5.55;2.85;;;;;;;;;;4977633;28;20038;-59
2023/06/23 07:58:23;;;;;;;5.22;2.88;;;;;;;;;;4979394;28;20112;-59
2023/06/23 08:00:51;;;;;;;6.63;3.03;;;;;;;;;;4978634;28;20038;-59
2023/06/23 08:03:17;;;;;;;5.13;3.15;;;;;;;;;;4977807;28;20050;-59
2023/06/23 08:05:43;;;;;;;6.05;3.45;;;;;;;;;;4977784;28;20061;-59
2023/06/23 08:08:09;;;;;;;4.97;2.78;;;;;;;;;;4977412;28;20470;-59
2023/06/23 08:10:35;;;;;;;6.53;3.00;;;;;;;;;;4976625;28;20038;-59
2023/06/23 08:13:01;;;;;;;7.32;3.35;;;;;;;;;;4978580;28;20117;-59
2023/06/23 08:15:28;;;;;;;8.38;3.97;;;;;;;;;;4978397;28;20033;-59
2023/06/23 08:17:54;;;;;;;6.20;3.50;;;;;;;;;;4978279;28;21047;-59
2023/06/23 08:20:21;;;;;;;8.52;4.50;;;;;;;;;;4978329;28;20121;-59
2023/06/23 08:22:47;;;;;;;7.00;4.40;;;;;;;;;;4978787;28;20790;-59
2023/06/23 08:25:14;;;;;;;6.68;3.63;;;;;;;;;;4977205;28;20046;-59
2023/06/23 08:27:40;;;;;;;6.38;3.33;;;;;;;;;;4978309;28;20544;-59
2023/06/23 08:30:06;;;;;;;5.90;3.67;;;;;;;;;;4978440;28;20958;-59
2023/06/23 08:32:33;;;;;;;7.30;3.55;;;;;;;;;;4978369;28;20042;-59
2023/06/23 08:35:00;;;;;;;5.68;3.20;;;;;;;;;;4977969;28;20041;-59
2023/06/23 08:37:26;;;;;;;6.80;3.63;;;;;;;;;;4978261;28;20869;-59
2023/06/23 08:39:52;;;;;;;8.40;3.97;;;;;;;;;;4978684;28;20357;-59
2023/06/23 08:42:18;;;;;;;6.03;3.40;;;;;;;;;;4977579;28;20026;-59
2023/06/23 08:44:45;;;;;;;6.70;3.97;;;;;;;;;;4976356;28;20034;-60
2023/06/23 08:47:13;;;;;;;10.43;3.80;;;;;;;;;;4976732;28;20097;-60
2023/06/23 08:49:40;;;;;;;6.65;3.63;;;;;;;;;;4977479;28;20534;-62
2023/06/23 08:52:07;;;;;;;6.32;4.60;;;;;;;;;;4975811;28;20030;-62
2023/06/23 08:54:33;;;;;;;7.88;3.88;;;;;;;;;;4975913;28;20074;-62
2023/06/23 08:56:59;;;;;;;8.15;3.75;;;;;;;;;;4975836;28;20035;-62
2023/06/23 08:59:25;;;;;;;6.53;4.00;;;;;;;;;;4976877;28;20142;-62
2023/06/23 09:01:52;;;;;;;6.45;3.95;;;;;;;;;;4978126;28;20136;-62
2023/06/23 09:04:18;;;;;;;8.15;3.60;;;;;;;;;;4975911;28;20057;-63
2023/06/23 09:06:44;;;;;;;8.32;3.42;;;;;;;;;;4975435;28;20080;-63
2023/06/23 09:09:10;;;;;;;8.27;3.88;;;;;;;;;;4976530;28;20019;-63
2023/06/23 09:11:36;;;;;;;8.55;4.07;;;;;;;;;;4977033;28;21175;-63
2023/06/23 09:14:03;;;;;;;5.30;3.05;;;;;;;;;;4979315;28;20454;-63
2023/06/23 09:16:30;;;;;;;7.40;3.28;;;;;;;;;;4981468;28;20042;-63
2023/06/23 09:18:56;;;;;;;4.95;3.10;;;;;;;;;;4980270;28;20056;-63
2023/06/23 09:21:22;;;;;;;4.90;2.83;;;;;;;;;;4981558;28;20050;-63
2023/06/23 09:24:04;;;;;;;5.68;2.47;;;;;;;;;;4979986;28;20030;-63
2023/06/23 09:26:43;;;;;;;6.68;2.50;;;;;;;;;;4979733;28;20105;-62
2023/06/23 09:29:27;;;;;;;6.32;2.80;;;;;;;;;;4980882;28;20105;-62
2023/06/23 09:31:54;;;;;;;6.07;2.97;;;;;;;;;;4981727;28;20085;-62
2023/06/23 09:34:21;;;;;;;7.25;4.05;;;;;;;;;;4980441;28;20118;-62
2023/06/23 09:36:47;;;;;;;5.82;3.40;;;;;;;;;;4980617;28;20037;-62
2023/06/23 09:39:14;;;;;;;4.47;2.58;;;;;;;;;;4980798;28;20065;-62
2023/06/23 09:41:45;;;;;;;6.82;3.42;;;;;;;;;;4964998;28;20119;-62
2023/06/23 09:44:11;;;;;;;6.03;3.60;;;;;;;;;;4972716;28;20616;-62
2023/06/23 09:46:37;;;;;;;8.68;3.70;;;;;;;;;;4980664;28;20632;-62
2023/06/23 09:49:07;;;;;;;8.07;3.63;;;;;;;;;;4980561;28;20381;-62
2023/06/23 09:51:37;;;;;;;6.28;3.70;;;;;;;;;;4980781;28;20080;-62
2023/06/23 09:54:03;;;;;;;8.02;3.67;;;;;;;;;;4974452;28;20026;-62
2023/06/23 09:56:29;;;;;;;6.57;3.90;;;;;;;;;;4972197;28;20255;-62
2023/06/23 09:58:55;;;;;;;7.57;3.60;;;;;;;;;;4971454;28;20089;-62
2023/06/23 10:01:22;;;;;;;6.93;3.70;;;;;;;;;;4973141;28;21019;-62
2023/06/23 10:03:49;;;;;;;7.25;3.40;;;;;;;;;;4971489;28;20665;-62
2023/06/23 10:06:31;;;;;;;7.20;4.00;;;;;;;;;;4972630;28;20037;-62
2023/06/23 10:08:58;;;;;;;7.97;3.78;;;;;;;;;;4972490;28;20041;-62
2023/06/23 10:11:29;;;;;;;6.57;3.33;;;;;;;;;;4971477;28;20137;-62
2023/06/23 10:13:56;;;;;;;6.88;3.78;;;;;;;;;;4972626;28;20088;-62
2023/06/23 10:16:22;;;;;;;5.43;3.38;;;;;;;;;;4972460;28;20477;-62
2023/06/23 10:18:48;;;;;;;7.75;3.50;;;;;;;;;;4972324;28;20046;-62
2023/06/23 10:21:14;;;;;;;6.13;3.33;;;;;;;;;;4972883;28;20185;-62
2023/06/23 10:23:40;;;;;;;6.18;3.90;;;;;;;;;;4971833;28;20052;-62
2023/06/23 10:26:07;;;;;;;7.35;3.70;;;;;;;;;;4970736;28;20403;-62
2023/06/23 10:28:36;;;;;;;5.72;3.38;;;;;;;;;;4972207;28;20039;-62
2023/06/23 10:31:03;;;;;;;10.32;3.97;;;;;;;;;;4971599;28;20035;-62
2023/06/23 10:33:30;;;;;;;7.35;3.80;;;;;;;;;;4972582;28;20035;-62
2023/06/23 10:35:57;;;;;;;6.65;3.60;;;;;;;;;;4972371;28;20045;-62
2023/06/23 10:38:23;;;;;;;7.90;4.30;;;;;;;;;;4972643;28;20160;-62
2023/06/23 10:40:51;;;;;;;7.05;4.10;;;;;;;;;;4970993;28;20039;-62
2023/06/23 10:43:19;;;;;;;6.63;3.95;;;;;;;;;;4972508;28;20038;-62
2023/06/23 10:45:45;;;;;;;6.65;4.13;;;;;;;;;;4972672;28;20049;-62
2023/06/23 10:48:12;;;;;;;9.10;4.35;;;;;;;;;;4970272;28;20045;-62
2023/06/23 10:50:40;;;;;;;7.13;3.65;;;;;;;;;;4972734;28;20089;-62
2023/06/23 10:53:15;;;;;;;7.90;4.05;;;;;;;;;;4971045;28;20023;-62
2023/06/23 10:55:42;;;;;;;6.63;4.32;;;;;;;;;;4970515;28;21941;-62
2023/06/23 10:58:09;;;;;;;8.98;4.53;;;;;;;;;;4971453;28;20038;-62
2023/06/23 11:00:35;;;;;;;7.72;4.07;;;;;;;;;;4971593;28;20038;-62
2023/06/23 11:03:02;;;;;;;7.35;3.90;;;;;;;;;;4966645;28;20030;-62
2023/06/23 11:05:28;;;;;;;7.05;4.85;;;;;;;;;;4971015;28;20770;-62
2023/06/23 11:08:04;;;;;;;6.85;4.32;;;;;;;;;;4968910;28;20026;-62
2023/06/23 11:10:50;;;;;;;8.10;4.47;;;;;;;;;;4971829;28;20544;-62
2023/06/23 11:13:16;;;;;;;9.15;5.45;;;;;;;;;;4971025;28;20030;-62
2023/06/23 11:15:51;;;;;;;7.60;4.85;;;;;;;;;;4971277;28;20045;-62
2023/06/23 11:18:21;;;;;;;8.05;5.20;;;;;;;;;;4968780;28;20095;-62
2023/06/23 11:20:47;;;;;;;9.30;5.10;;;;;;;;;;4971278;28;20085;-62
2023/06/23 11:23:14;;;;;;;7.13;4.93;;;;;;;;;;4971572;28;20045;-62
2023/06/23 11:25:46;;;;;;;9.45;5.40;;;;;;;;;;4969728;28;20685;-62
2023/06/23 11:28:24;;;;;;;7.78;4.80;;;;;;;;;;4967121;28;20196;-62
2023/06/23 11:31:10;;;;;;;7.40;4.78;;;;;;;;;;4970066;28;20031;-62
2023/06/23 11:33:37;;;;;;;6.55;4.55;;;;;;;;;;4969238;28;20030;-62
2023/06/23 11:36:04;;;;;;;7.35;4.30;;;;;;;;;;4969583;28;20038;-62
2023/06/23 11:38:34;;;;;;;7.95;5.13;;;;;;;;;;4974527;28;20042;-62
2023/06/23 11:41:01;;;;;;;12.27;5.68;;;;;;;;;;4970717;28;20033;-62
2023/06/23 11:43:31;;;;;;;8.45;5.25;;;;;;;;;;4970328;28;20039;-62
2023/06/23 11:45:59;;;;;;;7.00;4.57;;;;;;;;;;4970571;28;20065;-62
2023/06/23 11:48:28;;;;;;;8.23;5.43;;;;;;;;;;4970499;28;20037;-62
2023/06/23 11:50:58;;;;;;;8.98;4.97;;;;;;;;;;4971118;28;20424;-62
2023/06/23 11:53:25;;;;;;;7.53;4.05;;;;;;;;;;4970165;28;20057;-62
2023/06/23 11:55:52;;;;;;;7.03;4.57;;;;;;;;;;4970446;28;20049;-62
2023/06/23 11:58:18;;;;;;;6.80;3.72;;;;;;;;;;4970980;28;20038;-62
2023/06/23 12:00:44;;;;;;;6.93;3.40;;;;;;;;;;4969770;28;20034;-62
2023/06/23 12:03:14;;;;;;;8.73;4.00;;;;;;;;;;4970625;28;20038;-62
2023/06/23 12:05:41;;;;;;;7.88;4.22;;;;;;;;;;4957805;28;20030;-62
2023/06/23 12:08:07;;;;;;;7.75;3.55;;;;;;;;;;4970432;28;20049;-62
2023/06/23 12:10:37;;;;;;;6.80;3.47;;;;;;;;;;4967908;28;20030;-62
2023/06/23 12:13:06;;;;;;;5.97;2.83;;;;;;;;;;4968875;28;20022;-62
2023/06/23 12:15:32;;;;;;;7.63;3.30;;;;;;;;;;4968223;28;20061;-62
2023/06/23 12:17:58;;;;;;;5.80;2.72;;;;;;;;;;4967666;28;20033;-62
2023/06/23 12:20:24;;;;;;;7.22;3.97;;;;;;;;;;4968661;28;20029;-62
2023/06/23 12:22:50;;;;;;;6.07;3.55;;;;;;;;;;4968860;28;20560;-62
2023/06/23 12:25:20;;;;;;;5.93;3.05;;;;;;;;;;4970404;28;20172;-62
2023/06/23 12:27:55;;;;;;;6.50;2.47;;;;;;;;;;4968664;28;20168;-62
2023/06/23 12:30:22;;;;;;;5.30;2.80;;;;;;;;;;4969548;28;20026;-62
2023/06/23 12:32:48;;;;;;;7.63;2.97;;;;;;;;;;4968914;28;20113;-62
2023/06/23 12:35:18;;;;;;;7.18;3.00;;;;;;;;;;4969030;28;20496;-62
2023/06/23 12:37:48;;;;;;;6.88;2.50;;;;;;;;;;4966987;28;20482;-62
2023/06/23 12:40:32;;;;;;;5.53;2.75;;;;;;;;;;4968835;28;20171;-62
2023/06/23 12:42:59;;;;;;;6.38;2.50;;;;;;;;;;4967506;28;20034;-62
2023/06/23 12:45:25;;;;;;;6.07;2.40;;;;;;;;;;4969902;28;20629;-62
2023/06/23 12:47:52;;;;;;;5.97;2.55;;;;;;;;;;4969976;28;20113;-62
2023/06/23 12:50:28;;;;;;;5.22;2.30;;;;;;;;;;4969686;28;20026;-62
2023/06/23 12:52:55;;;;;;;5.03;2.40;;;;;;;;;;4969715;28;20077;-62
2023/06/23 12:55:21;;;;;;;5.53;2.45;;;;;;;;;;4969391;28;20444;-62
2023/06/23 12:57:49;;;;;;;5.00;2.58;;;;;;;;;;4968610;28;20034;-62
2023/06/23 13:00:16;;;;;;;5.53;2.40;;;;;;;;;;4968946;28;20814;-62
2023/06/23 13:02:42;;;;;;;6.18;2.20;;;;;;;;;;4968278;28;21103;-62
2023/06/23 13:05:08;;;;;;;5.63;2.35;;;;;;;;;;4969940;28;20034;-62
2023/06/23 13:07:35;;;;;;;6.50;2.63;;;;;;;;;;4957350;28;20061;-62
2023/06/23 13:10:02;;;;;;;4.72;2.55;;;;;;;;;;4969744;28;20143;-62
2023/06/23 13:12:28;;;;;;;8.75;2.92;;;;;;;;;;4967067;28;20034;-62
2023/06/23 13:14:54;;;;;;;5.85;2.72;;;;;;;;;;4969917;28;20567;-62
2023/06/23 13:17:20;;;;;;;5.25;2.28;;;;;;;;;;4969650;28;20104;-62
2023/06/23 13:19:46;;;;;;;4.75;2.30;;;;;;;;;;4966038;28;20038;-62
2023/06/23 13:22:12;;;;;;;5.85;2.50;;;;;;;;;;4967498;28;20038;-62
2023/06/23 13:24:40;;;;;;;5.47;2.53;;;;;;;;;;4967980;28;20456;-62
2023/06/23 13:27:08;;;;;;;5.30;2.05;;;;;;;;;;4966988;28;20042;-62
2023/06/23 13:29:36;;;;;;;6.88;2.50;;;;;;;;;;4968886;28;20026;-62
2023/06/23 13:32:03;;;;;;;5.90;2.63;;;;;;;;;;4958558;28;20205;-62
2023/06/23 13:34:29;;;;;;;5.35;2.10;;;;;;;;;;4969097;28;20513;-62
2023/06/23 13:36:55;;;;;;;5.13;2.30;;;;;;;;;;4967702;28;20038;-62
2023/06/23 13:39:22;;;;;;;6.32;2.30;;;;;;;;;;4967556;28;20089;-62
2023/06/23 13:41:48;;;;;;;7.25;2.00;;;;;;;;;;4966997;28;21942;-62
2023/06/23 13:44:17;;;;;;;6.10;2.45;;;;;;;;;;4968312;28;20080;-62
2023/06/23 13:46:43;;;;;;;7.57;2.85;;;;;;;;;;4970277;28;20072;-62
2023/06/23 13:49:12;;;;;;;5.43;2.35;;;;;;;;;;4969804;28;20029;-62
2023/06/23 13:51:38;;;;;;;5.18;1.88;;;;;;;;;;4969519;28;20030;-62
2023/06/23 13:54:04;;;;;;;4.45;2.40;;;;;;;;;;4969491;28;20034;-62
2023/06/23 13:56:30;;;;;;;4.28;2.00;;;;;;;;;;4968103;28;20029;-62
2023/06/23 13:58:56;;;;;;;4.32;2.05;;;;;;;;;;4968057;28;20065;-62
2023/06/23 14:01:22;;;;;;;7.60;2.60;;;;;;;;;;4970450;28;20038;-62
2023/06/23 14:03:51;;;;;;;4.57;1.77;;;;;;;;;;4972724;28;20026;-62
2023/06/23 14:06:18;;;;;;;6.50;2.58;;;;;;;;;;4972894;28;20654;-62
2023/06/23 14:08:44;;;;;;;5.55;2.33;;;;;;;;;;4972140;28;20048;-62
2023/06/23 14:11:11;;;;;;;6.30;2.25;;;;;;;;;;4971399;28;20034;-62
2023/06/23 14:13:37;;;;;;;4.95;2.05;;;;;;;;;;4972057;28;20038;-62
2023/06/23 14:16:03;;;;;;;6.30;2.22;;;;;;;;;;4972665;28;20530;-62
2023/06/23 14:18:29;;;;;;;4.05;1.83;;;;;;;;;;4972504;28;20038;-62
2023/06/23 14:20:55;;;;;;;7.65;2.50;;;;;;;;;;4973207;28;20034;-62
2023/06/23 14:23:21;;;;;;;5.55;2.60;;;;;;;;;;4971594;28;20042;-62
2023/06/23 14:25:47;;;;;;;5.30;2.45;;;;;;;;;;4971879;28;20065;-62
2023/06/23 14:28:13;;;;;;;4.50;2.25;;;;;;;;;;4972326;28;20042;-62
2023/06/23 14:30:39;;;;;;;4.35;2.25;;;;;;;;;;4986279;28;20513;-62
2023/06/23 14:33:06;;;;;;;4.35;2.10;;;;;;;;;;4972481;28;20065;-62
2023/06/23 14:35:32;;;;;;;4.95;2.22;;;;;;;;;;4972603;28;20065;-62
2023/06/23 14:37:58;;;;;;;6.50;2.10;;;;;;;;;;4972465;28;20026;-62
2023/06/23 14:40:24;;;;;;;7.25;2.42;;;;;;;;;;4971051;28;20042;-62
2023/06/23 14:42:51;;;;;;;6.60;2.33;;;;;;;;;;4972000;28;20073;-62
2023/06/23 14:45:17;;;;;;;4.57;1.85;;;;;;;;;;4968376;28;21990;-62